Time;durP1;ratioP1;P1;durP2;ratioP2;P2;SDS_P1;SDS_P2;PMS_P1;PMS_P2;Temp;Humidity;BMP_temperature;BMP_pressure;BME280_temperature;BME280_humidity;BME280_pressure;Samples;Min_cycle;Max_cycle;Signal;HPM_P1;HPM_P2
2023/01/07 00:01:33;;;;;;;3.65;1.88;;;12.90;99.90;;;;;;5014766;28;20559;-88
2023/01/07 00:04:01;;;;;;;3.20;2.10;;;12.90;99.90;;;;;;5015975;28;20919;-89
2023/01/07 00:06:32;;;;;;;4.72;2.17;;;12.90;99.90;;;;;;5001277;28;20585;-89
2023/01/07 00:08:59;;;;;;;4.00;2.07;;;12.90;99.90;;;;;;4998191;28;20458;-89
2023/01/07 00:11:32;;;;;;;3.63;2.00;;;12.90;99.90;;;;;;4986425;28;20033;-89
2023/01/07 00:13:59;;;;;;;4.88;2.25;;;12.90;99.90;;;;;;5004634;28;20269;-88
2023/01/07 00:16:28;;;;;;;5.07;2.30;;;12.90;99.90;;;;;;5000625;28;20450;-88
2023/01/07 00:18:56;;;;;;;4.70;2.08;;;12.90;99.90;;;;;;5009342;28;20047;-88
2023/01/07 00:21:23;;;;;;;3.50;2.00;;;12.90;99.90;;;;;;5008594;28;20021;-89
2023/01/07 00:23:53;;;;;;;3.80;1.83;;;12.90;99.90;;;;;;4996576;28;20064;-88
2023/01/07 00:26:21;;;;;;;3.63;1.98;;;12.90;99.90;;;;;;5015593;28;20035;-88
2023/01/07 00:28:48;;;;;;;3.65;1.85;;;12.80;99.90;;;;;;5010758;28;20244;-89
2023/01/07 00:31:29;;;;;;;2.75;1.90;;;12.80;99.90;;;;;;4999803;28;20056;-88
2023/01/07 00:36:27;;;;;;;2.38;1.70;;;12.80;99.90;;;;;;5010424;28;20025;-89
2023/01/07 00:38:55;;;;;;;2.83;1.60;;;12.80;99.90;;;;;;5014426;28;20040;-89
2023/01/07 00:41:21;;;;;;;2.72;1.65;;;12.80;99.90;;;;;;5009130;28;20051;-88
2023/01/07 00:43:47;;;;;;;3.60;1.57;;;12.70;99.90;;;;;;4972071;28;21419;-88
2023/01/07 00:46:14;;;;;;;3.58;2.05;;;12.70;99.90;;;;;;5017563;28;20060;-88
2023/01/07 00:48:40;;;;;;;3.42;1.90;;;12.70;99.90;;;;;;5010287;28;20224;-89
2023/01/07 00:51:09;;;;;;;2.90;1.80;;;12.70;99.90;;;;;;4994194;28;20083;-88
2023/01/07 00:53:35;;;;;;;3.75;1.92;;;12.70;99.90;;;;;;5000153;28;20083;-89
2023/01/07 00:56:00;;;;;;;3.87;2.10;;;12.70;99.90;;;;;;4995136;28;20021;-88
2023/01/07 00:58:26;;;;;;;5.70;2.47;;;12.60;99.90;;;;;;5007146;28;20237;-89
2023/01/07 01:00:57;;;;;;;4.17;2.23;;;12.70;99.90;;;;;;4981474;28;20037;-88
2023/01/07 01:03:23;;;;;;;5.47;2.42;;;12.60;99.90;;;;;;5028626;28;20277;-89
2023/01/07 01:05:50;;;;;;;3.72;1.85;;;12.60;99.90;;;;;;4996409;28;20080;-88
2023/01/07 01:08:17;;;;;;;4.95;2.05;;;12.60;99.90;;;;;;4997749;28;20117;-88
2023/01/07 01:10:47;;;;;;;4.00;2.05;;;12.70;99.90;;;;;;5023987;28;20056;-88
2023/01/07 01:13:15;;;;;;;3.77;2.20;;;12.70;99.90;;;;;;4994277;28;20037;-88
2023/01/07 01:15:46;;;;;;;3.17;2.08;;;12.70;99.90;;;;;;4992256;28;20025;-89
2023/01/07 01:18:12;;;;;;;2.58;1.73;;;12.60;99.90;;;;;;4991698;28;20076;-89
2023/01/07 01:20:38;;;;;;;3.22;1.65;;;12.70;99.90;;;;;;5001637;28;20021;-89
2023/01/07 01:23:05;;;;;;;4.53;2.10;;;12.60;99.90;;;;;;4996241;28;20490;-89
2023/01/07 01:25:31;;;;;;;3.13;1.70;;;12.60;99.90;;;;;;5004513;28;20131;-89
2023/01/07 01:27:56;;;;;;;3.58;1.70;;;12.60;99.90;;;;;;5001691;28;20501;-89
2023/01/07 01:30:23;;;;;;;3.70;2.17;;;12.60;99.90;;;;;;5012847;28;20028;-88
2023/01/07 01:32:49;;;;;;;2.53;1.80;;;12.60;99.90;;;;;;5006607;28;20029;-89
2023/01/07 01:35:14;;;;;;;3.25;2.00;;;12.50;99.90;;;;;;5011979;28;20390;-89
2023/01/07 01:37:40;;;;;;;4.40;1.80;;;12.60;99.90;;;;;;5001461;28;20027;-88
2023/01/07 01:40:07;;;;;;;3.67;1.85;;;12.60;99.90;;;;;;5014932;28;20021;-89
2023/01/07 01:42:33;;;;;;;2.55;1.55;;;12.50;99.90;;;;;;5032088;28;21249;-89
2023/01/07 01:45:00;;;;;;;3.15;1.90;;;12.60;99.90;;;;;;5000228;28;20028;-88
2023/01/07 01:47:45;;;;;;;3.73;1.80;;;12.60;99.90;;;;;;5011884;28;20247;-88
2023/01/07 01:50:25;;;;;;;2.20;1.70;;;12.60;99.90;;;;;;5010399;28;20014;-89
2023/01/07 01:53:05;;;;;;;3.55;1.80;;;12.60;99.90;;;;;;4994291;28;20029;-89
2023/01/07 01:55:39;;;;;;;3.08;1.60;;;12.60;99.90;;;;;;5000097;28;20032;-88
2023/01/07 01:58:09;;;;;;;2.97;1.70;;;12.60;99.90;;;;;;5013004;28;20018;-89
2023/01/07 02:00:35;;;;;;;3.37;1.83;;;12.60;99.90;;;;;;5000522;28;20036;-92
2023/01/07 02:03:04;;;;;;;2.67;1.70;;;12.60;99.90;;;;;;5029320;28;20404;-91
2023/01/07 02:05:37;;;;;;;3.35;1.40;;;12.60;99.90;;;;;;4992180;28;20255;-93
2023/01/07 02:08:03;;;;;;;3.05;1.77;;;12.70;99.90;;;;;;5036281;28;20060;-91
2023/01/07 02:10:31;;;;;;;2.83;1.83;;;12.70;99.90;;;;;;4990035;28;20564;-92
2023/01/07 02:13:19;;;;;;;2.30;1.67;;;12.70;99.90;;;;;;5020976;28;20305;-91
2023/01/07 02:15:57;;;;;;;2.33;1.60;;;12.70;99.90;;;;;;5024208;28;20477;-87
2023/01/07 02:18:35;;;;;;;3.40;1.83;;;12.70;99.90;;;;;;5014137;28;20056;-91
2023/01/07 02:21:13;;;;;;;3.75;1.70;;;12.70;99.90;;;;;;4982260;28;21075;-92
2023/01/07 02:23:45;;;;;;;3.45;1.60;;;12.80;99.90;;;;;;5017896;28;20257;-93
2023/01/07 02:26:39;;;;;;;3.40;1.67;;;12.80;99.90;;;;;;5019234;28;20029;-93
2023/01/07 02:29:35;;;;;;;3.05;1.88;;;12.80;99.90;;;;;;4999867;28;20029;-92
2023/01/07 02:32:25;;;;;;;3.00;1.60;;;12.80;99.90;;;;;;5017492;28;20706;-90
2023/01/07 02:35:29;;;;;;;3.17;1.80;;;12.80;99.90;;;;;;4998670;28;20059;-93
2023/01/07 02:38:13;;;;;;;2.22;1.65;;;12.80;99.90;;;;;;5034576;28;20542;-90
2023/01/07 02:41:07;;;;;;;3.57;1.90;;;12.80;99.90;;;;;;4998989;28;20031;-92
2023/01/07 02:43:43;;;;;;;3.10;1.77;;;12.90;99.90;;;;;;5019133;28;20361;-91
2023/01/07 02:46:40;;;;;;;3.67;1.90;;;12.90;99.90;;;;;;5000213;28;20393;-92
2023/01/07 02:49:08;;;;;;;2.78;1.70;;;12.90;99.90;;;;;;5008129;28;20367;-94
2023/01/07 02:51:37;;;;;;;2.80;1.70;;;12.90;99.90;;;;;;5003660;28;20128;-91
2023/01/07 02:54:08;;;;;;;2.27;1.50;;;12.90;99.90;;;;;;5019264;28;20031;-93
2023/01/07 02:57:02;;;;;;;2.00;1.65;;;12.90;99.90;;;;;;4982688;28;20109;-91
2023/01/07 02:59:45;;;;;;;2.67;1.23;;;12.90;99.90;;;;;;5001503;28;20047;-93
2023/01/07 03:02:18;;;;;;;2.95;1.60;;;12.90;99.90;;;;;;4999508;28;20022;-92
2023/01/07 03:05:00;;;;;;;3.80;1.90;;;12.90;99.90;;;;;;4981146;28;20041;-92
2023/01/07 03:07:53;;;;;;;3.33;1.50;;;12.90;99.90;;;;;;5011793;28;20220;-88
2023/01/07 03:10:33;;;;;;;2.67;1.48;;;12.90;99.90;;;;;;4949864;28;20045;-92
2023/01/07 03:13:10;;;;;;;2.20;1.40;;;12.90;99.90;;;;;;4989050;28;20055;-91
2023/01/07 03:15:47;;;;;;;2.47;1.50;;;12.90;99.90;;;;;;5018629;28;20021;-91
2023/01/07 03:18:22;;;;;;;1.88;1.42;;;12.90;99.90;;;;;;5001344;28;20013;-93
2023/01/07 03:20:53;;;;;;;1.93;1.30;;;12.90;99.90;;;;;;5004886;28;20083;-93
2023/01/07 03:23:22;;;;;;;2.08;1.50;;;13.00;99.90;;;;;;5006434;28;20357;-94
2023/01/07 03:25:52;;;;;;;1.85;1.30;;;13.00;99.90;;;;;;5018970;28;20044;-93
2023/01/07 03:28:23;;;;;;;2.50;1.35;;;13.00;99.90;;;;;;5000067;28;20123;-92
2023/01/07 03:30:52;;;;;;;1.98;1.40;;;13.00;99.90;;;;;;5017790;28;20252;-93
2023/01/07 03:33:27;;;;;;;2.50;1.40;;;13.00;99.90;;;;;;5014885;28;20018;-93
2023/01/07 03:35:55;;;;;;;2.13;1.23;;;13.00;99.90;;;;;;5006703;28;20021;-93
2023/01/07 03:38:22;;;;;;;2.08;1.50;;;13.10;99.90;;;;;;4983279;28;20205;-94
2023/01/07 03:40:49;;;;;;;2.38;1.58;;;13.00;99.90;;;;;;4999300;28;20035;-91
2023/01/07 03:43:21;;;;;;;1.95;1.45;;;13.00;99.90;;;;;;5019154;28;20174;-93
2023/01/07 03:45:49;;;;;;;2.67;1.57;;;13.00;99.90;;;;;;4996297;28;20047;-91
2023/01/07 03:48:15;;;;;;;3.00;1.60;;;13.00;99.90;;;;;;5016500;28;20043;-92
2023/01/07 03:50:40;;;;;;;3.13;1.50;;;13.10;99.90;;;;;;5006800;28;20025;-91
2023/01/07 03:53:08;;;;;;;1.98;1.35;;;13.00;99.90;;;;;;5023550;28;20024;-93
2023/01/07 03:55:34;;;;;;;2.97;1.63;;;13.10;99.90;;;;;;4997576;28;20114;-93
2023/01/07 03:57:59;;;;;;;2.67;1.40;;;13.10;99.90;;;;;;5005295;28;20040;-90
2023/01/07 04:00:25;;;;;;;2.30;1.60;;;13.10;99.90;;;;;;4998462;28;20033;-92
2023/01/07 04:02:51;;;;;;;2.22;1.30;;;13.00;99.90;;;;;;5001228;28;20036;-92
2023/01/07 04:05:17;;;;;;;2.10;1.20;;;13.00;99.90;;;;;;4998014;28;20469;-91
2023/01/07 04:07:43;;;;;;;1.77;1.38;;;13.00;99.90;;;;;;4984679;28;20033;-91
2023/01/07 04:10:09;;;;;;;2.13;1.37;;;12.90;99.90;;;;;;5008593;28;20514;-92
2023/01/07 04:12:35;;;;;;;2.22;1.50;;;12.90;99.90;;;;;;5001911;28;20669;-91
2023/01/07 04:15:02;;;;;;;1.87;1.20;;;12.90;99.90;;;;;;5018334;28;20009;-91
2023/01/07 04:17:28;;;;;;;2.25;1.30;;;12.80;99.90;;;;;;5000425;28;20257;-92
2023/01/07 04:19:53;;;;;;;2.58;1.20;;;12.80;99.90;;;;;;5004648;28;20477;-91
2023/01/07 04:22:19;;;;;;;2.90;1.20;;;12.70;99.90;;;;;;4982435;28;20436;-92
2023/01/07 04:24:45;;;;;;;1.73;1.27;;;12.70;99.90;;;;;;5015120;28;20040;-91
2023/01/07 04:27:11;;;;;;;1.73;1.10;;;12.70;99.90;;;;;;4999220;28;20028;-93
2023/01/07 04:29:37;;;;;;;1.75;0.90;;;12.70;99.90;;;;;;5006194;28;20096;-93
2023/01/07 04:32:03;;;;;;;2.40;1.10;;;12.60;99.90;;;;;;4983829;28;20064;-91
2023/01/07 04:34:29;;;;;;;1.27;1.05;;;12.60;99.90;;;;;;5016041;28;20021;-91
2023/01/07 04:36:55;;;;;;;1.63;1.00;;;12.60;99.90;;;;;;5022030;28;20013;-91
2023/01/07 04:39:21;;;;;;;1.10;1.00;;;12.60;99.90;;;;;;4974918;28;20029;-91
2023/01/07 04:41:47;;;;;;;1.52;1.10;;;12.70;99.90;;;;;;5016972;28;20290;-92
2023/01/07 04:44:14;;;;;;;2.10;1.03;;;12.60;99.90;;;;;;5006534;28;20471;-92
2023/01/07 04:46:43;;;;;;;1.35;1.02;;;12.70;99.90;;;;;;5016569;28;20017;-92
2023/01/07 04:49:08;;;;;;;1.05;0.90;;;12.70;99.90;;;;;;5006181;28;20044;-88
2023/01/07 04:51:34;;;;;;;1.20;0.90;;;12.70;99.90;;;;;;5023477;28;20021;-93
2023/01/07 04:54:00;;;;;;;1.60;1.10;;;12.70;99.90;;;;;;5000981;28;20082;-92
2023/01/07 04:56:26;;;;;;;2.08;1.00;;;12.70;99.90;;;;;;5010032;28;20020;-93
2023/01/07 04:58:53;;;;;;;1.40;1.10;;;12.70;99.90;;;;;;5003598;28;20041;-91
2023/01/07 05:01:19;;;;;;;1.47;1.00;;;12.70;99.90;;;;;;5027416;28;20064;-88
2023/01/07 05:03:45;;;;;;;1.15;1.00;;;12.70;99.90;;;;;;5011360;28;20032;-93
2023/01/07 05:06:11;;;;;;;1.08;0.90;;;12.70;99.90;;;;;;5006628;28;20041;-92
2023/01/07 05:08:36;;;;;;;1.40;1.10;;;12.70;99.90;;;;;;4985284;28;20043;-93
2023/01/07 05:11:04;;;;;;;2.13;1.20;;;12.70;99.90;;;;;;5007892;28;20464;-91
2023/01/07 05:13:30;;;;;;;1.30;1.10;;;12.70;99.90;;;;;;5003630;28;20060;-90
2023/01/07 05:15:56;;;;;;;2.28;1.02;;;12.70;99.90;;;;;;5004326;28;20013;-94
2023/01/07 05:18:22;;;;;;;1.70;0.90;;;12.70;99.90;;;;;;5039379;28;20028;-92
2023/01/07 05:20:47;;;;;;;1.27;0.90;;;12.70;99.90;;;;;;5001968;28;20333;-91
2023/01/07 05:23:13;;;;;;;1.73;1.00;;;12.70;99.90;;;;;;5022521;28;20028;-87
2023/01/07 05:25:39;;;;;;;1.77;1.20;;;12.80;99.90;;;;;;4982924;28;20040;-91
2023/01/07 05:28:06;;;;;;;1.30;0.93;;;12.80;99.90;;;;;;5005220;28;20017;-91
2023/01/07 05:30:32;;;;;;;1.95;1.00;;;12.80;99.90;;;;;;5012380;28;20378;-86
2023/01/07 05:32:59;;;;;;;1.03;0.90;;;12.70;99.90;;;;;;5002113;28;20214;-93
2023/01/07 05:35:25;;;;;;;1.38;0.93;;;12.70;99.90;;;;;;5006669;28;20021;-92
2023/01/07 05:37:50;;;;;;;1.30;0.90;;;12.70;99.90;;;;;;5016542;28;20020;-92
2023/01/07 05:40:16;;;;;;;1.27;0.87;;;12.70;99.90;;;;;;4988948;28;20471;-92
2023/01/07 05:42:42;;;;;;;0.90;0.80;;;12.70;99.90;;;;;;5005975;28;20028;-91
2023/01/07 05:45:08;;;;;;;1.50;1.00;;;12.70;99.90;;;;;;5027888;28;20227;-90
2023/01/07 05:47:34;;;;;;;1.08;0.73;;;12.70;99.90;;;;;;5013937;28;20071;-92
2023/01/07 05:50:02;;;;;;;0.80;0.70;;;12.70;99.90;;;;;;5008033;28;20029;-92
2023/01/07 05:52:27;;;;;;;1.30;0.95;;;12.70;99.90;;;;;;5014187;28;20025;-92
2023/01/07 05:54:53;;;;;;;1.17;0.80;;;12.70;99.90;;;;;;4998198;28;20724;-90
2023/01/07 05:57:19;;;;;;;0.93;0.73;;;12.70;99.90;;;;;;5005276;28;20029;-93
2023/01/07 05:59:45;;;;;;;1.20;1.00;;;12.70;99.90;;;;;;5008267;28;20261;-90
2023/01/07 06:02:10;;;;;;;1.27;0.85;;;12.60;99.90;;;;;;4993257;28;20018;-93
2023/01/07 06:04:36;;;;;;;2.43;0.90;;;12.70;99.90;;;;;;4999945;28;20025;-92
2023/01/07 06:07:02;;;;;;;2.42;1.00;;;12.70;99.90;;;;;;5007418;28;20336;-92
2023/01/07 06:09:31;;;;;;;1.75;1.00;;;12.60;99.90;;;;;;5003975;28;20029;-89
2023/01/07 06:11:57;;;;;;;2.22;0.90;;;12.60;99.90;;;;;;4993378;28;20099;-92
2023/01/07 06:14:23;;;;;;;2.27;1.10;;;12.60;99.90;;;;;;5010950;28;20024;-93
2023/01/07 06:16:48;;;;;;;1.75;0.93;;;12.60;99.90;;;;;;5007386;28;20436;-90
2023/01/07 06:19:14;;;;;;;2.13;1.10;;;12.60;99.90;;;;;;5040258;28;20013;-93
2023/01/07 06:21:40;;;;;;;1.87;1.10;;;12.60;99.90;;;;;;5000011;28;20558;-93
2023/01/07 06:24:06;;;;;;;2.45;1.17;;;12.60;99.90;;;;;;5010416;28;20021;-88
2023/01/07 06:26:32;;;;;;;1.70;1.00;;;12.50;99.90;;;;;;4982180;28;20443;-90
2023/01/07 06:28:58;;;;;;;2.33;0.90;;;12.50;99.90;;;;;;4998440;28;20033;-93
2023/01/07 06:31:24;;;;;;;1.50;1.00;;;12.50;99.90;;;;;;5036303;28;20028;-91
2023/01/07 06:33:50;;;;;;;1.98;1.00;;;12.60;99.90;;;;;;5002049;28;20232;-93
2023/01/07 06:36:16;;;;;;;1.60;1.03;;;12.60;99.90;;;;;;5013210;28;20049;-91
2023/01/07 06:38:42;;;;;;;2.00;0.98;;;12.60;99.90;;;;;;5014174;28;20167;-92
2023/01/07 06:41:08;;;;;;;1.38;0.85;;;12.60;99.90;;;;;;5018003;28;20025;-92
2023/01/07 06:43:34;;;;;;;1.70;1.00;;;12.60;99.90;;;;;;4985665;28;20029;-91
2023/01/07 06:45:59;;;;;;;1.60;0.90;;;12.60;99.90;;;;;;5018256;28;20114;-93
2023/01/07 06:48:25;;;;;;;2.38;0.93;;;12.60;99.90;;;;;;5014699;28;20168;-93
2023/01/07 06:50:51;;;;;;;1.00;0.80;;;12.60;99.90;;;;;;5004954;28;20112;-92
2023/01/07 06:53:17;;;;;;;1.38;0.98;;;12.60;99.90;;;;;;5006526;28;20025;-92
2023/01/07 06:55:48;;;;;;;1.30;1.10;;;12.70;99.90;;;;;;4998359;28;20052;-92
2023/01/07 06:58:14;;;;;;;1.80;0.98;;;12.70;99.90;;;;;;4982159;28;20029;-93
2023/01/07 07:00:41;;;;;;;1.40;0.90;;;12.70;99.90;;;;;;5034571;28;20033;-92
2023/01/07 07:03:07;;;;;;;1.38;1.00;;;12.70;99.90;;;;;;5009612;28;20029;-91
2023/01/07 07:05:33;;;;;;;1.05;0.73;;;12.70;99.90;;;;;;5015325;28;20040;-93
2023/01/07 07:07:59;;;;;;;1.05;0.80;;;12.70;99.90;;;;;;5003598;28;20072;-92
2023/01/07 07:10:26;;;;;;;1.27;0.80;;;12.70;99.90;;;;;;5005077;28;20060;-91
2023/01/07 07:12:52;;;;;;;1.02;0.88;;;12.70;99.90;;;;;;5019325;28;20139;-92
2023/01/07 07:15:17;;;;;;;1.65;1.00;;;12.70;99.90;;;;;;4989239;28;20025;-89
2023/01/07 07:17:44;;;;;;;0.75;0.70;;;12.70;99.90;;;;;;5015454;28;20114;-90
2023/01/07 07:20:10;;;;;;;1.30;0.80;;;12.70;99.90;;;;;;5001349;28;20410;-90
2023/01/07 07:22:36;;;;;;;1.05;0.80;;;12.70;99.90;;;;;;5001691;28;20025;-91
2023/01/07 07:25:02;;;;;;;1.48;0.90;;;12.80;99.90;;;;;;5004085;28;20509;-91
2023/01/07 07:27:28;;;;;;;0.95;0.70;;;12.80;99.90;;;;;;5013543;28;20098;-93
2023/01/07 07:29:54;;;;;;;1.80;1.00;;;12.80;99.90;;;;;;4986973;28;20273;-93
2023/01/07 07:32:21;;;;;;;1.10;1.00;;;12.80;99.90;;;;;;5019564;28;20516;-92
2023/01/07 07:34:47;;;;;;;2.22;0.90;;;12.80;99.90;;;;;;5000167;28;20021;-89
2023/01/07 07:37:13;;;;;;;2.33;0.90;;;12.80;99.90;;;;;;5000342;28;20044;-89
2023/01/07 07:39:38;;;;;;;2.00;1.08;;;12.80;99.90;;;;;;4997675;28;20017;-92
2023/01/07 07:42:04;;;;;;;0.97;0.87;;;12.80;99.90;;;;;;5002508;28;20526;-91
2023/01/07 07:44:30;;;;;;;1.52;0.93;;;12.80;99.90;;;;;;5005952;28;20059;-92
2023/01/07 07:46:56;;;;;;;1.07;0.90;;;12.80;99.90;;;;;;4995446;28;20616;-91
2023/01/07 07:49:22;;;;;;;1.35;0.93;;;12.80;99.90;;;;;;5002373;28;20025;-93
2023/01/07 07:51:48;;;;;;;1.38;1.00;;;12.80;99.90;;;;;;4994322;28;20024;-90
2023/01/07 07:54:14;;;;;;;0.77;0.70;;;12.80;99.90;;;;;;5001250;28;20032;-90
2023/01/07 07:56:40;;;;;;;0.90;0.70;;;12.80;99.90;;;;;;4999553;28;20112;-90
2023/01/07 07:59:05;;;;;;;1.00;0.80;;;12.80;99.90;;;;;;5002536;28;20028;-90
2023/01/07 08:01:35;;;;;;;1.20;0.80;;;12.80;99.90;;;;;;4977181;28;20021;-91
2023/01/07 08:04:01;;;;;;;1.37;1.00;;;12.80;99.90;;;;;;5001839;28;20035;-92
2023/01/07 08:06:27;;;;;;;1.65;0.80;;;12.80;99.90;;;;;;5002717;28;20083;-93
2023/01/07 08:08:54;;;;;;;1.20;0.90;;;12.80;99.90;;;;;;4995120;28;20043;-91
2023/01/07 08:11:20;;;;;;;1.23;0.80;;;12.90;99.90;;;;;;5016826;28;20072;-90
2023/01/07 08:13:46;;;;;;;1.33;0.90;;;12.90;99.90;;;;;;5029994;28;20018;-88
2023/01/07 08:16:12;;;;;;;1.10;0.90;;;12.90;99.90;;;;;;5018569;28;20025;-91
2023/01/07 08:18:38;;;;;;;0.80;0.75;;;12.90;99.90;;;;;;4982558;28;20029;-88
2023/01/07 08:21:04;;;;;;;1.20;0.90;;;12.90;99.90;;;;;;4999104;28;20481;-91
2023/01/07 08:23:30;;;;;;;1.30;0.80;;;12.90;99.90;;;;;;5016008;28;20044;-91
2023/01/07 08:26:01;;;;;;;1.13;0.82;;;12.90;99.90;;;;;;5011833;28;20094;-92
2023/01/07 08:28:29;;;;;;;0.95;0.85;;;12.90;99.90;;;;;;5012730;28;20017;-94
2023/01/07 08:30:55;;;;;;;0.80;0.70;;;12.90;99.90;;;;;;5026871;28;20247;-90
2023/01/07 08:33:20;;;;;;;1.77;0.80;;;12.90;99.90;;;;;;4984682;28;20122;-91
2023/01/07 08:35:46;;;;;;;1.47;0.80;;;12.90;99.90;;;;;;5032817;28;20532;-92
2023/01/07 08:38:12;;;;;;;0.90;0.70;;;12.90;99.90;;;;;;5012759;28;20634;-88
2023/01/07 08:40:38;;;;;;;1.70;0.90;;;12.90;99.90;;;;;;5000261;28;20027;-92
2023/01/07 08:43:05;;;;;;;1.43;0.93;;;12.90;99.90;;;;;;5021429;28;20036;-92
2023/01/07 08:45:31;;;;;;;1.00;0.90;;;12.90;99.90;;;;;;5011563;28;20141;-92
2023/01/07 08:47:57;;;;;;;1.55;0.80;;;13.00;99.90;;;;;;4999262;28;20537;-90
2023/01/07 08:50:25;;;;;;;0.73;0.73;;;12.90;99.90;;;;;;4980669;28;20099;-91
2023/01/07 08:52:50;;;;;;;1.00;0.90;;;13.00;99.90;;;;;;4992041;28;20063;-93
2023/01/07 08:55:16;;;;;;;1.00;0.90;;;13.00;99.90;;;;;;5016474;28;20014;-90
2023/01/07 08:57:42;;;;;;;1.63;1.00;;;13.00;99.90;;;;;;5024244;28;20049;-93
2023/01/07 09:00:08;;;;;;;1.60;0.90;;;13.00;99.90;;;;;;5008987;28;20108;-85
2023/01/07 09:02:34;;;;;;;1.27;0.90;;;13.00;99.90;;;;;;5012762;28;20484;-90
2023/01/07 09:05:00;;;;;;;2.03;0.80;;;13.00;99.90;;;;;;4980562;28;20037;-90
2023/01/07 09:07:26;;;;;;;1.23;0.75;;;13.10;99.90;;;;;;4997781;28;20029;-93
2023/01/07 09:09:51;;;;;;;0.90;0.80;;;13.10;99.90;;;;;;4995173;28;20178;-90
2023/01/07 09:12:17;;;;;;;1.20;0.80;;;13.20;99.90;;;;;;5003927;28;20029;-92
2023/01/07 09:14:44;;;;;;;1.60;0.85;;;13.20;99.90;;;;;;5010961;28;20036;-92
2023/01/07 09:17:10;;;;;;;0.90;0.85;;;13.30;99.90;;;;;;4999900;28;20024;-92
2023/01/07 09:19:37;;;;;;;2.13;0.90;;;13.30;99.90;;;;;;4983547;28;20033;-92
2023/01/07 09:22:03;;;;;;;1.00;0.90;;;13.40;99.90;;;;;;5019007;28;20047;-92
2023/01/07 09:24:31;;;;;;;1.00;0.80;;;13.50;99.90;;;;;;5006371;28;20035;-89
2023/01/07 09:26:57;;;;;;;1.10;0.90;;;13.60;99.90;;;;;;5014415;28;20039;-94
2023/01/07 09:29:23;;;;;;;0.98;0.80;;;13.60;99.90;;;;;;5002527;28;20024;-90
2023/01/07 09:31:49;;;;;;;1.30;1.00;;;13.70;99.90;;;;;;4997893;28;20409;-90
2023/01/07 09:34:14;;;;;;;1.20;0.90;;;13.70;99.90;;;;;;5010898;28;20049;-92
2023/01/07 09:36:40;;;;;;;1.40;0.90;;;13.80;99.90;;;;;;4979903;28;20219;-91
2023/01/07 09:39:07;;;;;;;1.10;0.83;;;13.90;99.90;;;;;;5011328;28;20021;-92
2023/01/07 09:41:55;;;;;;;1.05;0.85;;;14.00;99.90;;;;;;4995900;28;20079;-91
2023/01/07 09:44:26;;;;;;;1.13;0.80;;;14.10;99.90;;;;;;5017078;28;20037;-88
2023/01/07 09:46:54;;;;;;;1.60;0.90;;;14.30;99.90;;;;;;5030743;28;20100;-91
2023/01/07 09:49:24;;;;;;;0.97;0.80;;;14.40;99.90;;;;;;5001565;28;20030;-93
2023/01/07 09:51:56;;;;;;;1.40;0.90;;;14.60;99.90;;;;;;4974930;28;21386;-90
2023/01/07 09:54:31;;;;;;;1.10;0.82;;;14.80;99.90;;;;;;5011312;28;20048;-91
2023/01/07 09:56:57;;;;;;;1.75;0.90;;;15.00;99.90;;;;;;5024495;28;20219;-88
2023/01/07 09:59:23;;;;;;;2.60;1.00;;;15.30;99.90;;;;;;5015562;28;20013;-89
2023/01/07 10:02:21;;;;;;;1.10;0.80;;;15.40;99.90;;;;;;5012249;28;20120;-93
2023/01/07 10:04:53;;;;;;;0.80;0.70;;;15.60;99.90;;;;;;5012006;28;20296;-90
2023/01/07 10:07:23;;;;;;;1.30;0.83;;;15.70;99.90;;;;;;4996177;28;20037;-92
2023/01/07 10:09:55;;;;;;;1.50;1.00;;;15.80;99.90;;;;;;5013042;28;20119;-91
2023/01/07 10:12:36;;;;;;;0.88;0.70;;;15.90;99.90;;;;;;5003680;28;20046;-87
2023/01/07 10:15:15;;;;;;;1.42;0.80;;;16.10;99.90;;;;;;4999566;28;20025;-91
2023/01/07 10:18:12;;;;;;;1.40;0.82;;;16.30;99.90;;;;;;5014111;28;20025;-90
2023/01/07 10:20:46;;;;;;;1.20;0.80;;;16.60;99.90;;;;;;5017484;28;20068;-90
2023/01/07 10:23:22;;;;;;;0.77;0.70;;;16.80;99.90;;;;;;4978011;28;20032;-91
2023/01/07 10:25:55;;;;;;;1.02;0.90;;;17.00;99.90;;;;;;5013149;28;20017;-91
2023/01/07 10:29:09;;;;;;;1.20;0.90;;;17.20;99.90;;;;;;4987295;28;20077;-93
2023/01/07 10:31:35;;;;;;;1.20;0.77;;;17.40;99.90;;;;;;4954178;28;20037;-90
2023/01/07 10:34:02;;;;;;;1.10;0.80;;;17.60;99.90;;;;;;4997012;28;20052;-90
2023/01/07 10:36:41;;;;;;;1.10;0.93;;;17.80;99.90;;;;;;4994951;28;20641;-88
2023/01/07 10:39:23;;;;;;;1.05;0.90;;;18.00;99.90;;;;;;4972060;28;20047;-92
2023/01/07 10:42:17;;;;;;;0.90;0.80;;;18.10;99.90;;;;;;5032559;28;20116;-91
2023/01/07 10:45:23;;;;;;;1.15;0.82;;;18.10;99.90;;;;;;5028176;28;20266;-88
2023/01/07 10:47:49;;;;;;;1.13;0.90;;;18.20;99.90;;;;;;5010729;28;20043;-90
2023/01/07 10:50:33;;;;;;;1.10;0.90;;;18.30;99.90;;;;;;4998367;28;20413;-92
2023/01/07 10:53:17;;;;;;;1.02;0.88;;;18.30;99.90;;;;;;5032051;28;20124;-90
2023/01/07 10:56:15;;;;;;;1.10;0.97;;;18.30;99.90;;;;;;5002292;28;20040;-89
2023/01/07 10:58:44;;;;;;;1.13;1.00;;;18.30;99.90;;;;;;5020539;28;20045;-93
2023/01/07 11:01:22;;;;;;;1.00;0.80;;;18.30;99.90;;;;;;5011971;28;20112;-93
2023/01/07 11:03:52;;;;;;;1.20;0.90;;;18.40;99.90;;;;;;4996902;28;20067;-89
2023/01/07 11:06:27;;;;;;;1.45;0.90;;;18.50;99.90;;;;;;4996809;28;20512;-90
2023/01/07 11:08:53;;;;;;;1.10;0.90;;;18.50;99.90;;;;;;5000027;28;20481;-91
2023/01/07 11:11:22;;;;;;;1.00;0.88;;;18.60;99.90;;;;;;4977757;28;20025;-90
2023/01/07 11:13:58;;;;;;;1.00;0.90;;;18.70;99.90;;;;;;5018967;28;20044;-89
2023/01/07 11:16:32;;;;;;;1.30;0.90;;;18.90;99.90;;;;;;5026068;28;20088;-93
2023/01/07 11:19:07;;;;;;;1.27;1.00;;;19.00;99.90;;;;;;5014871;28;20017;-91
2023/01/07 11:21:47;;;;;;;0.93;0.87;;;19.10;99.90;;;;;;4995618;28;20259;-89
2023/01/07 11:24:30;;;;;;;1.42;1.00;;;19.10;99.90;;;;;;5003306;28;20422;-93
2023/01/07 11:27:16;;;;;;;1.65;0.98;;;19.10;98.80;;;;;;5016667;28;20088;-89
2023/01/07 11:29:44;;;;;;;1.60;0.93;;;19.00;99.90;;;;;;5007285;28;20060;-90
2023/01/07 11:32:37;;;;;;;3.30;1.20;;;18.90;99.90;;;;;;4992597;28;20502;-88
2023/01/07 11:35:06;;;;;;;1.63;1.00;;;18.80;99.10;;;;;;5006055;28;20040;-91
2023/01/07 11:37:40;;;;;;;1.67;1.05;;;18.70;99.90;;;;;;4996338;28;20250;-89
2023/01/07 11:40:12;;;;;;;1.73;1.00;;;18.70;99.90;;;;;;4992772;28;20018;-86
2023/01/07 11:42:55;;;;;;;1.80;0.93;;;18.60;99.90;;;;;;5001610;28;20056;-92
2023/01/07 11:45:57;;;;;;;2.65;1.08;;;18.70;99.90;;;;;;5011491;28;20123;-90
2023/01/07 11:48:33;;;;;;;2.20;1.23;;;18.80;99.90;;;;;;5006074;28;20036;-93
2023/01/07 11:51:00;;;;;;;1.13;0.90;;;18.90;99.90;;;;;;5033742;28;20025;-88
2023/01/07 11:53:48;;;;;;;1.90;1.10;;;19.10;99.90;;;;;;5028262;28;20075;-90
2023/01/07 11:56:28;;;;;;;1.83;1.10;;;19.20;99.90;;;;;;4989164;28;20036;-89
2023/01/07 11:59:14;;;;;;;1.63;1.10;;;19.40;99.90;;;;;;4998272;28;20520;-89
2023/01/07 12:01:46;;;;;;;1.93;1.20;;;19.40;99.70;;;;;;4995655;28;20294;-88
2023/01/07 12:04:33;;;;;;;1.45;1.13;;;19.40;99.90;;;;;;4998548;28;20028;-91
2023/01/07 12:07:04;;;;;;;2.15;1.20;;;19.30;98.20;;;;;;5007770;28;20041;-85
2023/01/07 12:09:30;;;;;;;1.35;1.00;;;19.20;99.90;;;;;;4992447;28;20258;-90
2023/01/07 12:11:59;;;;;;;2.10;1.27;;;19.10;99.90;;;;;;4976127;28;20045;-86
2023/01/07 12:14:26;;;;;;;2.85;1.30;;;19.10;99.90;;;;;;5029569;28;20032;-87
2023/01/07 12:16:53;;;;;;;1.95;1.38;;;18.90;99.90;;;;;;4994313;28;20068;-86
2023/01/07 12:19:42;;;;;;;2.30;1.30;;;18.70;99.60;;;;;;5012042;28;20028;-88
2023/01/07 12:22:20;;;;;;;1.73;1.20;;;18.40;96.80;;;;;;4985626;28;20550;-89
2023/01/07 12:25:06;;;;;;;1.60;1.17;;;18.20;99.00;;;;;;5017267;28;20040;-86
2023/01/07 12:27:50;;;;;;;1.92;1.17;;;18.00;99.90;;;;;;4987794;28;20737;-91
2023/01/07 12:30:24;;;;;;;1.15;0.93;;;17.80;98.80;;;;;;5008114;28;20033;-90
2023/01/07 12:33:02;;;;;;;1.20;1.00;;;17.70;99.90;;;;;;5006043;28;20456;-90
2023/01/07 12:35:56;;;;;;;1.25;1.00;;;17.60;99.90;;;;;;5023598;28;20055;-89
2023/01/07 12:38:38;;;;;;;1.67;1.00;;;17.50;98.00;;;;;;4993112;28;20037;-86
2023/01/07 12:41:10;;;;;;;1.85;1.10;;;17.40;99.50;;;;;;5012001;28;20032;-88
2023/01/07 12:43:41;;;;;;;1.92;1.05;;;17.40;99.90;;;;;;4973477;28;20463;-90
2023/01/07 12:46:12;;;;;;;1.92;1.10;;;17.30;99.90;;;;;;5014750;28;20103;-86
2023/01/07 12:48:54;;;;;;;2.03;1.10;;;17.20;99.90;;;;;;5025015;28;20308;-87
2023/01/07 12:51:37;;;;;;;1.40;1.10;;;17.10;99.90;;;;;;5008333;28;20028;-90
2023/01/07 12:54:10;;;;;;;1.50;1.02;;;17.00;99.90;;;;;;5009179;28;20040;-89
2023/01/07 12:56:46;;;;;;;1.50;1.05;;;16.90;99.90;;;;;;5011168;28;20477;-85
2023/01/07 12:59:36;;;;;;;1.70;1.10;;;16.80;99.90;;;;;;4994905;28;20025;-88
2023/01/07 13:02:16;;;;;;;1.58;1.10;;;16.70;99.90;;;;;;5034408;28;20026;-88
2023/01/07 13:05:12;;;;;;;1.60;1.00;;;16.70;99.90;;;;;;4994182;28;20228;-89
2023/01/07 13:08:02;;;;;;;1.20;0.88;;;16.80;99.90;;;;;;5003534;28;20029;-87
2023/01/07 13:10:33;;;;;;;1.33;1.00;;;16.90;99.90;;;;;;4998894;28;20049;-87